Strona główna
METAR-TAF:

METAR-TAF

Lotnisko :

Port lotniczy Zielona Góra-Babimost

Zielona Góra, Polska

Szerokość geograficzna: 52-08-19N, Długość geograficzna: 015-47-55E, wysokość: 59 m

Aktualna obserwacja pogody

Raport powstał 30 minut temu, godzina 09:30 UTC
Wiatr 5 kt od północ, zmienny między zachodnio-północny zachód i wschodnio-północny wschód
Temperatura 23°C
Wilgotność 65%
Ciśnienie 1021 hPa
Widzialność 10 km lub więcej
Mało chmury na wysokości 2700 ft

METAR: EPZG 180930Z 36005KT 290V060 9999 FEW027 23/16 Q1021

czas: 12:00 (10:00 UTC)

Prognoza

Raport powstał 1 godzina i 30 minut temu, godzina 08:30 UTC
Prognoza ważna od 18 godzina 09 UTC do 18 godzina 18 UTC
Wiatr 8 kt od północno-północny zachód
Widzialność 10 km lub więcej
Brak chmur poniżej 1500 m i brak chmur cumulonimbus
Prawdopodobieństwo 40% :
Przejściowo
od 18 godzina 09 UTC do 18 godzina 15 UTC
Rozproszone chmury na wysokości 3000 ft, Cumulonimbus.

TAF: EPZG 180830Z 1809/1818 34008KT CAVOK PROB40 TEMPO 1809/1815 SCT030CB

Obserwacja i prognoza pogody dla ponad 4000 lotnisk (raport METAR i TAF).

Dostępne stacje oznaczono żółtymi i czerwonymi punktami na mapie.

Najedź kursorem aby zobaczyć nazwę stacji.

Kliknij aby zobaczyć obserwacje i prognozy pogody.

Aby zmienić mapę: kliknij na zielony przycisk z czarnym krzyżykiem, aby powiększyć; na zielony przycisk z myślnikiem, aby pomniejszyć; na zielone strzałki, aby przejść do map sąsiednich.


METAR-TAF: